createdAt,value
2017-08-16T00:01:13.339Z,17.80
2017-08-16T00:03:43.308Z,17.90
2017-08-16T00:06:11.735Z,17.80
2017-08-16T00:08:40.599Z,17.90
2017-08-16T00:11:09.113Z,17.80
2017-08-16T00:13:39.008Z,17.80
2017-08-16T00:16:08.575Z,17.70
2017-08-16T00:18:37.836Z,17.60
2017-08-16T00:21:07.098Z,17.60
2017-08-16T00:23:35.538Z,17.60
2017-08-16T00:26:04.044Z,17.50
2017-08-16T00:28:32.481Z,17.50
2017-08-16T00:31:00.908Z,17.50
2017-08-16T00:33:30.509Z,17.50
2017-08-16T00:35:58.943Z,17.50
2017-08-16T00:38:27.801Z,17.60
2017-08-16T00:40:56.724Z,17.50
2017-08-16T00:43:25.152Z,17.50
2017-08-16T00:45:53.974Z,17.50
2017-08-16T00:48:22.454Z,17.50
2017-08-16T00:50:51.296Z,17.50
2017-08-16T00:53:20.166Z,17.40
2017-08-16T00:55:48.603Z,17.40
2017-08-16T00:58:17.536Z,17.50
2017-08-16T01:00:45.720Z,17.50
2017-08-16T01:03:14.155Z,17.40
2017-08-16T01:05:43.400Z,17.50
2017-08-16T01:08:11.834Z,17.50
2017-08-16T01:10:41.847Z,17.40
2017-08-16T01:13:11.417Z,17.30
2017-08-16T01:15:39.858Z,17.30
2017-08-16T01:18:08.284Z,17.30
2017-08-16T01:20:37.183Z,17.30
2017-08-16T01:23:05.604Z,17.20
2017-08-16T01:25:34.523Z,17.20
2017-08-16T01:28:03.344Z,17.20
2017-08-16T01:30:31.605Z,17.20
2017-08-16T01:33:01.815Z,17.10
2017-08-16T01:35:31.017Z,17.10
2017-08-16T01:37:59.447Z,17.10
2017-08-16T01:40:28.312Z,17.10
2017-08-16T01:42:57.563Z,17.10
2017-08-16T01:45:26.040Z,17.10
2017-08-16T01:47:54.496Z,17.10
2017-08-16T01:50:23.599Z,17.10
2017-08-16T01:52:52.448Z,17.10
2017-08-16T01:55:21.929Z,17.10
2017-08-16T01:57:50.758Z,17.10
2017-08-16T02:00:19.976Z,17.10
2017-08-16T02:02:48.418Z,17.10
2017-08-16T02:05:17.681Z,17.10
2017-08-16T02:07:47.257Z,17.10
2017-08-16T02:10:15.735Z,17.10
2017-08-16T02:12:44.187Z,17.00
2017-08-16T02:15:12.621Z,17.00
2017-08-16T02:17:41.856Z,17.10
2017-08-16T02:20:10.727Z,17.10
2017-08-16T02:22:39.168Z,17.10
2017-08-16T02:25:08.411Z,17.10
2017-08-16T02:27:36.852Z,17.10
2017-08-16T02:30:06.077Z,17.00
2017-08-16T02:32:34.574Z,17.10
2017-08-16T02:35:03.057Z,17.00
2017-08-16T02:37:31.886Z,16.90
2017-08-16T02:40:00.710Z,17.00
2017-08-16T02:42:29.587Z,17.00
2017-08-16T02:44:58.402Z,17.00
2017-08-16T02:47:26.844Z,16.90
2017-08-16T02:49:56.091Z,16.90
2017-08-16T02:52:24.931Z,16.90
2017-08-16T02:54:53.444Z,16.90
2017-08-16T02:57:21.596Z,16.90
2017-08-16T02:59:50.851Z,16.90
2017-08-16T03:02:19.288Z,16.90
2017-08-16T03:04:48.564Z,16.80
2017-08-16T03:07:17.089Z,16.80
2017-08-16T03:09:45.562Z,16.80
2017-08-16T03:12:13.659Z,16.80
2017-08-16T03:14:41.825Z,16.80
2017-08-16T03:17:09.598Z,16.80
2017-08-16T03:19:39.271Z,16.80
2017-08-16T03:22:07.411Z,16.80
2017-08-16T03:24:35.980Z,16.80
2017-08-16T03:27:04.508Z,16.80
2017-08-16T03:29:32.268Z,16.70
2017-08-16T03:34:30.625Z,16.70
2017-08-16T03:36:59.103Z,16.70
2017-08-16T03:39:27.683Z,16.60
2017-08-16T03:41:56.191Z,16.60
2017-08-16T03:44:24.700Z,16.60
2017-08-16T03:46:54.354Z,16.50
2017-08-16T03:49:22.507Z,16.60
2017-08-16T03:51:50.629Z,16.50
2017-08-16T03:54:19.550Z,16.40
2017-08-16T03:56:47.374Z,16.40
2017-08-16T03:59:15.919Z,16.40
2017-08-16T04:01:44.074Z,16.40
2017-08-16T04:04:12.593Z,16.40
2017-08-16T04:06:41.464Z,16.40
2017-08-16T04:09:09.935Z,16.40
2017-08-16T04:11:38.461Z,16.40
2017-08-16T04:14:06.598Z,16.30
2017-08-16T04:16:35.525Z,16.40
2017-08-16T04:19:04.038Z,16.40
2017-08-16T04:21:32.532Z,16.30
2017-08-16T04:24:00.685Z,16.20
2017-08-16T04:26:29.520Z,16.20
2017-08-16T04:28:57.296Z,16.10
2017-08-16T04:31:26.195Z,16.00
2017-08-16T04:33:54.691Z,16.00
2017-08-16T04:36:23.193Z,16.00
2017-08-16T04:38:53.213Z,16.00
2017-08-16T04:41:22.096Z,16.00
2017-08-16T04:43:49.935Z,16.00
2017-08-16T04:46:18.400Z,16.00
2017-08-16T04:48:47.257Z,16.10
2017-08-16T04:51:15.071Z,16.10
2017-08-16T04:53:43.928Z,16.10
2017-08-16T04:56:12.811Z,16.10
2017-08-16T04:58:40.564Z,16.10
2017-08-16T05:01:09.508Z,16.20
2017-08-16T05:03:37.620Z,16.20
2017-08-16T05:06:06.854Z,16.30
2017-08-16T05:08:35.373Z,16.40
2017-08-16T05:11:04.231Z,16.50
2017-08-16T05:13:32.381Z,16.60
2017-08-16T05:16:01.594Z,16.70
2017-08-16T05:18:31.581Z,16.80
2017-08-16T05:20:59.728Z,16.90
2017-08-16T05:23:28.319Z,17.00
2017-08-16T05:25:56.856Z,17.10
2017-08-16T05:28:25.311Z,17.20
2017-08-16T05:30:54.279Z,17.10
2017-08-16T05:33:23.207Z,17.20
2017-08-16T05:35:51.317Z,17.20
2017-08-16T05:38:19.909Z,17.20
2017-08-16T05:40:48.764Z,17.30
2017-08-16T05:43:17.219Z,17.20
2017-08-16T05:45:45.047Z,17.40
2017-08-16T05:48:15.161Z,17.50
2017-08-16T05:53:13.837Z,17.60
2017-08-16T05:55:42.281Z,17.70
2017-08-16T05:58:11.544Z,17.60
2017-08-16T06:00:40.367Z,17.50
2017-08-16T06:03:08.811Z,17.40
2017-08-16T06:05:37.710Z,17.50
2017-08-16T06:08:06.138Z,17.50
2017-08-16T06:10:34.963Z,17.60
2017-08-16T06:15:33.672Z,18.10
2017-08-16T06:18:02.102Z,18.00
2017-08-16T06:20:30.617Z,18.10
2017-08-16T06:22:59.824Z,18.10
2017-08-16T06:25:28.253Z,18.40
2017-08-16T06:27:58.233Z,18.50
2017-08-16T06:30:26.673Z,18.80
2017-08-16T06:32:55.503Z,19.40
2017-08-16T06:35:24.017Z,20.60
2017-08-16T06:37:53.198Z,21.20
2017-08-16T06:40:22.037Z,21.30
2017-08-16T06:42:50.894Z,21.20
2017-08-16T06:47:48.861Z,21.20
2017-08-16T06:50:17.728Z,21.20
2017-08-16T06:52:47.293Z,20.90
2017-08-16T06:55:15.871Z,21.00
2017-08-16T06:57:45.133Z,21.50
2017-08-16T07:00:13.581Z,21.10
2017-08-16T07:02:42.072Z,21.20
2017-08-16T07:05:10.509Z,21.80
2017-08-16T07:07:39.363Z,21.80
2017-08-16T07:10:07.807Z,21.90
2017-08-16T07:12:37.519Z,21.20
2017-08-16T07:15:05.963Z,21.80
2017-08-16T07:17:35.529Z,22.10
2017-08-16T07:20:04.000Z,22.30
2017-08-16T07:22:33.242Z,22.50
2017-08-16T07:25:02.085Z,22.30
2017-08-16T07:27:30.567Z,22.10
2017-08-16T07:29:59.005Z,22.10
2017-08-16T07:32:27.426Z,21.90
2017-08-16T07:34:56.407Z,21.70
2017-08-16T07:37:24.823Z,22.10
2017-08-16T07:39:53.688Z,22.50
2017-08-16T07:42:22.516Z,22.70
2017-08-16T07:44:50.982Z,23.10
2017-08-16T07:47:19.854Z,23.70
2017-08-16T07:49:48.695Z,23.30
2017-08-16T07:52:17.888Z,22.70
2017-08-16T08:02:29.680Z,24.20
2017-08-16T08:04:58.869Z,24.70
2017-08-16T08:07:27.683Z,25.00
2017-08-16T08:12:26.171Z,26.30
2017-08-16T08:14:55.384Z,26.90
2017-08-16T08:17:24.276Z,27.20
2017-08-16T08:19:53.467Z,28.50
2017-08-16T08:22:21.897Z,31.40
2017-08-16T08:24:50.371Z,33.40
2017-08-16T08:27:18.790Z,34.90
2017-08-16T08:29:47.261Z,34.30
2017-08-16T08:32:17.233Z,35.50
2017-08-16T08:34:46.458Z,36.10
2017-08-16T08:37:16.442Z,36.20
2017-08-16T08:39:45.677Z,35.00
2017-08-16T08:42:14.246Z,32.20
2017-08-16T08:44:42.684Z,30.40
2017-08-16T08:47:12.259Z,30.90
2017-08-16T08:49:41.080Z,31.80
2017-08-16T08:52:09.567Z,32.50
2017-08-16T08:54:38.763Z,32.20
2017-08-16T08:57:07.179Z,31.40
2017-08-16T08:59:35.635Z,30.10
2017-08-16T09:02:04.448Z,29.10
2017-08-16T09:04:33.643Z,28.10
2017-08-16T09:07:02.859Z,28.20
2017-08-16T09:09:31.318Z,27.90
2017-08-16T09:11:59.746Z,28.70
2017-08-16T09:14:28.613Z,30.90
2017-08-16T09:16:57.867Z,33.60
2017-08-16T09:19:26.720Z,35.50
2017-08-16T09:21:55.556Z,34.70
2017-08-16T09:24:24.074Z,34.40
2017-08-16T09:26:52.528Z,34.60
2017-08-16T09:29:21.389Z,34.90
2017-08-16T09:31:49.749Z,35.90
2017-08-16T09:34:18.189Z,37.50
2017-08-16T09:36:46.661Z,38.40
2017-08-16T09:39:15.484Z,38.50
2017-08-16T09:41:45.431Z,37.00
2017-08-16T09:44:15.031Z,36.40
2017-08-16T09:46:43.848Z,36.50
2017-08-16T09:49:13.092Z,37.20
2017-08-16T09:51:42.289Z,36.30
2017-08-16T09:54:10.776Z,37.10
2017-08-16T09:56:39.999Z,36.60
2017-08-16T09:59:09.241Z,37.50
2017-08-16T10:01:38.071Z,36.20
2017-08-16T10:04:07.285Z,34.60
2017-08-16T10:06:36.895Z,32.50
2017-08-16T10:09:06.093Z,31.00
2017-08-16T10:11:35.326Z,31.80
2017-08-16T10:14:04.512Z,35.00
2017-08-16T10:16:32.997Z,35.60
2017-08-16T10:19:02.240Z,37.80
2017-08-16T10:21:31.440Z,35.90
2017-08-16T10:23:59.945Z,37.20
2017-08-16T10:26:28.410Z,38.10
2017-08-16T10:28:57.233Z,35.40
2017-08-16T10:31:26.496Z,38.10
2017-08-16T10:33:54.925Z,39.60
2017-08-16T10:36:24.141Z,39.10
2017-08-16T10:38:53.386Z,40.60
2017-08-16T10:41:23.698Z,40.90
2017-08-16T10:43:52.528Z,42.20
2017-08-16T10:46:20.961Z,39.90
2017-08-16T10:48:49.440Z,37.70
2017-08-16T10:51:19.020Z,38.20
2017-08-16T10:53:47.480Z,37.90
2017-08-16T10:56:16.718Z,39.90
2017-08-16T10:58:45.156Z,40.30
2017-08-16T11:01:14.011Z,36.80
2017-08-16T11:03:42.458Z,36.00
2017-08-16T11:06:10.990Z,35.70
2017-08-16T11:08:39.492Z,35.90
2017-08-16T11:11:08.001Z,36.40
2017-08-16T11:13:37.277Z,36.80
2017-08-16T11:16:06.489Z,37.10
2017-08-16T11:18:35.319Z,39.50
2017-08-16T11:21:04.152Z,40.00
2017-08-16T11:23:32.982Z,38.00
2017-08-16T11:26:01.484Z,37.50
2017-08-16T11:28:30.315Z,36.90
2017-08-16T11:30:59.931Z,36.20
2017-08-16T11:33:28.775Z,36.70
2017-08-16T11:35:58.356Z,37.90
2017-08-16T11:38:27.584Z,36.50
2017-08-16T11:40:56.048Z,37.60
2017-08-16T11:43:24.598Z,39.10
2017-08-16T11:45:53.037Z,38.60
2017-08-16T11:48:22.237Z,41.30
2017-08-16T11:50:50.714Z,42.40
2017-08-16T11:53:20.961Z,41.00
2017-08-16T11:55:50.162Z,41.30
2017-08-16T11:58:19.021Z,41.80
2017-08-16T12:00:48.602Z,40.10
2017-08-16T12:03:18.213Z,35.90
2017-08-16T12:05:46.660Z,34.50
2017-08-16T12:08:16.603Z,35.80
2017-08-16T12:10:45.105Z,36.40
2017-08-16T12:13:13.947Z,38.30
2017-08-16T12:15:42.380Z,38.20
2017-08-16T12:18:11.625Z,36.10
2017-08-16T12:20:40.449Z,35.20
2017-08-16T12:23:09.275Z,33.70
2017-08-16T12:25:37.741Z,32.50
2017-08-16T12:28:06.943Z,30.70
2017-08-16T12:30:36.557Z,30.30
2017-08-16T12:33:06.168Z,30.40
2017-08-16T12:35:34.609Z,30.00
2017-08-16T12:38:03.105Z,30.10
2017-08-16T12:40:33.097Z,29.90
2017-08-16T12:43:01.568Z,30.30
2017-08-16T12:45:31.129Z,31.20
2017-08-16T12:47:59.607Z,31.30
2017-08-16T12:50:28.049Z,32.90
2017-08-16T12:52:57.049Z,32.90
2017-08-16T12:55:25.520Z,32.80
2017-08-16T12:57:53.991Z,33.90
2017-08-16T13:00:22.832Z,32.90
2017-08-16T13:02:51.266Z,34.80
2017-08-16T13:05:19.743Z,33.70
2017-08-16T13:07:48.610Z,33.90
2017-08-16T13:10:17.651Z,35.60
2017-08-16T13:12:46.091Z,35.50
2017-08-16T13:15:14.988Z,35.80
2017-08-16T13:17:43.827Z,36.20
2017-08-16T13:20:12.708Z,35.80
2017-08-16T13:22:42.279Z,35.70
2017-08-16T13:25:10.722Z,35.10
2017-08-16T13:27:40.671Z,34.50
2017-08-16T13:30:09.130Z,34.90
2017-08-16T13:32:38.336Z,33.60
2017-08-16T13:35:06.868Z,34.10
2017-08-16T13:37:35.412Z,33.80
2017-08-16T13:40:04.987Z,33.90
2017-08-16T13:42:33.086Z,32.80
2017-08-16T13:47:31.011Z,32.80
2017-08-16T13:49:59.497Z,33.30
2017-08-16T13:52:27.989Z,34.70
2017-08-16T13:54:57.936Z,34.40
2017-08-16T13:57:26.789Z,34.50
2017-08-16T13:59:55.265Z,34.60
2017-08-16T14:02:24.478Z,35.20
2017-08-16T14:04:53.352Z,35.80
2017-08-16T14:07:21.786Z,35.80
2017-08-16T14:09:51.039Z,35.10
2017-08-16T14:12:20.599Z,33.60
2017-08-16T14:14:49.492Z,31.90
2017-08-16T14:17:18.332Z,31.30
2017-08-16T14:19:48.209Z,30.30
2017-08-16T14:22:16.698Z,29.20
2017-08-16T14:24:45.579Z,28.60
2017-08-16T14:27:15.533Z,28.30
2017-08-16T14:32:13.472Z,28.50
2017-08-16T14:34:42.310Z,30.00
2017-08-16T14:37:11.543Z,31.20
2017-08-16T14:39:40.394Z,31.80
2017-08-16T14:42:09.459Z,31.10
2017-08-16T14:44:38.290Z,31.00
2017-08-16T14:47:07.330Z,30.20
2017-08-16T14:52:06.019Z,29.50
2017-08-16T14:54:34.454Z,29.10
2017-08-16T14:59:33.233Z,28.90
2017-08-16T15:02:03.183Z,28.40
2017-08-16T15:04:31.636Z,28.50
2017-08-16T15:07:00.154Z,28.60
2017-08-16T15:09:28.737Z,28.80
2017-08-16T15:11:58.278Z,31.00
2017-08-16T15:14:27.144Z,31.90
2017-08-16T15:16:56.395Z,33.30
2017-08-16T15:19:24.863Z,33.50
2017-08-16T15:21:54.056Z,33.50
2017-08-16T15:24:22.499Z,33.20
2017-08-16T15:26:50.987Z,32.80
2017-08-16T15:29:20.201Z,31.10
2017-08-16T15:31:50.522Z,30.30
2017-08-16T15:34:20.493Z,30.60
2017-08-16T15:39:18.784Z,30.10
2017-08-16T15:41:47.224Z,29.60
2017-08-16T15:44:15.698Z,28.80
2017-08-16T15:49:13.618Z,27.60
2017-08-16T15:51:42.813Z,27.30
2017-08-16T15:54:12.834Z,27.00
2017-08-16T15:56:41.669Z,26.90
2017-08-16T15:59:10.496Z,27.30
2017-08-16T16:01:39.362Z,27.60
2017-08-16T16:04:07.799Z,27.90
2017-08-16T16:11:35.961Z,27.10
2017-08-16T16:14:04.473Z,26.90
2017-08-16T16:16:33.298Z,26.50
2017-08-16T16:19:01.752Z,26.30
2017-08-16T16:21:30.619Z,26.20
2017-08-16T16:26:29.243Z,26.00
2017-08-16T16:28:58.116Z,26.00
2017-08-16T16:31:26.614Z,26.00
2017-08-16T16:33:55.453Z,26.00
2017-08-16T16:36:23.934Z,25.80
2017-08-16T16:38:53.890Z,25.90
2017-08-16T16:41:22.322Z,25.70
2017-08-16T16:43:50.762Z,25.80
2017-08-16T16:46:19.213Z,25.50
2017-08-16T16:48:47.734Z,25.80
2017-08-16T16:51:17.686Z,25.90
2017-08-16T16:53:46.139Z,25.80
2017-08-16T16:56:14.586Z,25.70
2017-08-16T16:58:43.409Z,25.50
2017-08-16T17:01:12.639Z,25.10
2017-08-16T17:03:42.624Z,25.00
2017-08-16T17:06:11.060Z,24.70
2017-08-16T17:08:39.508Z,24.60
2017-08-16T17:11:09.525Z,24.50
2017-08-16T17:13:38.732Z,24.30
2017-08-16T17:16:09.227Z,24.30
2017-08-16T17:18:37.664Z,24.20
2017-08-16T17:21:06.887Z,24.10
2017-08-16T17:23:35.752Z,24.00
2017-08-16T17:26:04.200Z,23.90
2017-08-16T17:28:33.858Z,23.90
2017-08-16T17:31:02.352Z,24.00
2017-08-16T17:33:31.550Z,23.90
2017-08-16T17:36:00.038Z,23.80
2017-08-16T17:38:30.082Z,23.60
2017-08-16T17:40:58.547Z,23.50
2017-08-16T17:43:27.015Z,23.30
2017-08-16T17:45:56.597Z,23.30
2017-08-16T17:48:25.901Z,23.20
2017-08-16T17:50:54.340Z,23.10
2017-08-16T17:53:23.227Z,23.10
2017-08-16T17:55:51.664Z,23.00
2017-08-16T17:58:20.491Z,23.00
2017-08-16T18:00:49.741Z,23.00
2017-08-16T18:03:18.574Z,23.00
2017-08-16T18:05:48.144Z,23.10
2017-08-16T18:08:16.609Z,23.00
2017-08-16T18:10:45.047Z,22.90
2017-08-16T18:13:13.530Z,22.60
2017-08-16T18:15:42.380Z,22.40
2017-08-16T18:18:10.831Z,22.20
2017-08-16T18:20:40.075Z,22.00
2017-08-16T18:23:09.646Z,22.00
2017-08-16T18:25:39.218Z,22.00
2017-08-16T18:28:07.657Z,22.00
2017-08-16T18:30:36.098Z,22.00
2017-08-16T18:33:04.576Z,21.80
2017-08-16T18:35:34.537Z,21.80
2017-08-16T18:38:03.563Z,21.70
2017-08-16T18:43:01.907Z,21.70
2017-08-16T18:45:30.356Z,21.80
2017-08-16T18:47:59.571Z,21.90
2017-08-16T18:50:28.450Z,22.00
2017-08-16T18:52:57.644Z,22.10
2017-08-16T18:57:56.020Z,22.20
2017-08-16T19:00:25.587Z,22.10
2017-08-16T19:02:54.828Z,22.10
2017-08-16T19:07:52.846Z,22.00
2017-08-16T19:10:21.281Z,21.80
2017-08-16T19:12:50.520Z,21.60
2017-08-16T19:15:19.354Z,21.50
2017-08-16T19:17:48.557Z,21.40
2017-08-16T19:20:17.432Z,21.40
2017-08-16T19:22:46.667Z,21.40
2017-08-16T19:25:15.142Z,21.60
2017-08-16T19:27:43.608Z,21.60
2017-08-16T19:30:12.478Z,21.60
2017-08-16T19:32:40.927Z,21.50
2017-08-16T19:35:09.765Z,21.40
2017-08-16T19:37:39.761Z,21.30
2017-08-16T19:40:08.595Z,21.40
2017-08-16T19:42:37.420Z,21.40
2017-08-16T19:45:06.138Z,21.30
2017-08-16T19:47:34.603Z,21.30
2017-08-16T19:50:03.086Z,21.20
2017-08-16T19:52:31.527Z,20.90
2017-08-16T19:55:00.741Z,20.60
2017-08-16T19:57:29.220Z,20.50
2017-08-16T19:59:58.083Z,20.30
2017-08-16T20:02:26.555Z,20.10
2017-08-16T20:04:55.044Z,20.00
2017-08-16T20:07:23.509Z,20.00
2017-08-16T20:09:51.769Z,20.00
2017-08-16T20:12:20.657Z,19.90
2017-08-16T20:14:49.098Z,19.90
2017-08-16T20:17:17.756Z,20.00
2017-08-16T20:19:46.613Z,20.00
2017-08-16T20:22:15.864Z,20.00
2017-08-16T20:24:44.322Z,20.00
2017-08-16T20:27:13.164Z,20.00
2017-08-16T20:29:41.627Z,20.00
2017-08-16T20:32:10.139Z,20.10
2017-08-16T20:34:38.981Z,20.20
2017-08-16T20:37:07.818Z,20.20
2017-08-16T20:39:36.679Z,20.20
2017-08-16T20:42:05.113Z,20.50
2017-08-16T20:44:34.740Z,20.60
2017-08-16T20:47:02.867Z,20.40
2017-08-16T20:49:32.102Z,20.00
2017-08-16T20:52:00.615Z,19.90
2017-08-16T20:56:58.906Z,19.60
2017-08-16T20:59:28.619Z,19.50
2017-08-16T21:01:57.821Z,19.30
2017-08-16T21:04:27.039Z,19.30
2017-08-16T21:06:56.662Z,19.30
2017-08-16T21:09:25.505Z,19.30
2017-08-16T21:11:54.328Z,19.60
2017-08-16T21:14:22.837Z,19.60
2017-08-16T21:16:51.311Z,19.70
2017-08-16T21:19:20.936Z,19.70
2017-08-16T21:21:50.169Z,19.80
2017-08-16T21:24:19.037Z,20.00
2017-08-16T21:26:48.283Z,20.10
2017-08-16T21:29:17.482Z,20.10
2017-08-16T21:31:47.056Z,20.00
2017-08-16T21:34:15.529Z,20.20
2017-08-16T21:36:44.750Z,20.00
2017-08-16T21:39:14.021Z,20.20
2017-08-16T21:41:42.452Z,20.20
2017-08-16T21:44:10.886Z,20.10
2017-08-16T21:46:39.770Z,20.20
2017-08-16T21:49:08.967Z,20.10
2017-08-16T21:51:37.841Z,20.10
2017-08-16T21:54:07.420Z,20.10
2017-08-16T21:56:35.860Z,20.00
2017-08-16T21:59:05.800Z,19.80
2017-08-16T22:04:03.659Z,19.70
2017-08-16T22:06:32.093Z,19.90
2017-08-16T22:09:00.570Z,19.90
2017-08-16T22:11:29.825Z,20.00
2017-08-16T22:13:58.654Z,20.10
2017-08-16T22:16:28.153Z,20.00
2017-08-16T22:21:26.159Z,20.10
2017-08-16T22:23:54.979Z,20.00
2017-08-16T22:26:23.409Z,19.90
2017-08-16T22:28:52.275Z,19.90
2017-08-16T22:31:20.725Z,19.80
2017-08-16T22:33:49.985Z,20.00
2017-08-16T22:36:19.184Z,20.00
2017-08-16T22:41:17.719Z,19.90
2017-08-16T22:43:46.920Z,19.90
2017-08-16T22:46:15.409Z,19.90
2017-08-16T22:48:44.253Z,19.80
2017-08-16T22:51:13.128Z,19.80
2017-08-16T22:53:41.560Z,19.80
2017-08-16T22:56:10.416Z,19.70
2017-08-16T22:58:39.251Z,19.70
2017-08-16T23:01:08.489Z,19.60
2017-08-16T23:03:36.921Z,19.30
2017-08-16T23:06:05.493Z,19.30
2017-08-16T23:08:34.330Z,19.40
2017-08-16T23:11:02.797Z,19.30
2017-08-16T23:13:31.687Z,19.30
2017-08-16T23:18:30.392Z,19.00
2017-08-16T23:20:59.595Z,18.90
2017-08-16T23:23:28.030Z,18.80
2017-08-16T23:28:26.339Z,18.60
2017-08-16T23:30:54.785Z,18.50
2017-08-16T23:33:23.578Z,18.30
2017-08-16T23:35:52.400Z,18.20
2017-08-16T23:38:20.849Z,18.20
2017-08-16T23:40:50.087Z,18.20
2017-08-16T23:43:19.271Z,18.30
2017-08-16T23:45:48.112Z,18.20
2017-08-16T23:48:18.087Z,18.10
2017-08-16T23:50:47.667Z,18.00
2017-08-16T23:53:16.856Z,17.90
2017-08-16T23:55:45.325Z,17.80
2017-08-16T23:58:13.759Z,17.80
